Time;durP1;ratioP1;P1;durP2;ratioP2;P2;SDS_P1;SDS_P2;PMS_P1;PMS_P2;Temp;Humidity;BMP_temperature;BMP_pressure;BME280_temperature;BME280_humidity;BME280_pressure;Samples;Min_cycle;Max_cycle;Signal;HPM_P1;HPM_P2
2024/01/01 00:00:08;;;;;;;56.80;36.03;;;;;;;4.04;75.24;92811.16;5066577;28;20185;-72
2024/01/01 00:02:34;;;;;;;70.37;41.37;;;;;;;3.97;75.13;92776.94;5071076;28;20220;-73
2024/01/01 00:04:59;;;;;;;64.33;39.27;;;;;;;4.23;74.98;92812.50;5065432;28;20186;-72
2024/01/01 00:07:24;;;;;;;75.80;39.93;;;;;;;4.22;74.66;92802.38;5065422;28;20256;-72
2024/01/01 00:09:50;;;;;;;68.27;40.47;;;;;;;4.12;74.51;92797.06;5063234;28;20184;-72
2024/01/01 00:12:15;;;;;;;85.97;47.70;;;;;;;4.17;74.99;92789.41;5058194;28;20235;-72
2024/01/01 00:14:40;;;;;;;67.90;40.57;;;;;;;4.16;75.32;92791.19;5064258;28;20198;-73
2024/01/01 00:17:05;;;;;;;74.53;39.97;;;;;;;3.99;74.42;92790.41;5071145;28;20229;-72
2024/01/01 00:19:31;;;;;;;72.37;40.43;;;;;;;4.03;74.88;92794.06;5071296;28;20245;-72
2024/01/01 00:21:56;;;;;;;52.20;34.50;;;;;;;3.96;74.97;92790.88;5069184;28;20236;-72
2024/01/01 00:24:21;;;;;;;52.57;33.63;;;;;;;3.97;74.67;92796.84;5064085;28;20174;-72
2024/01/01 00:26:47;;;;;;;62.53;37.33;;;;;;;3.89;74.69;92800.56;5063571;28;20257;-73
2024/01/01 00:29:13;;;;;;;57.30;36.10;;;;;;;3.90;74.41;92806.50;5069643;28;20189;-73
2024/01/01 00:31:39;;;;;;;86.53;42.97;;;;;;;4.00;74.23;92815.22;5069470;28;20482;-73
2024/01/01 00:34:04;;;;;;;76.53;44.17;;;;;;;3.95;74.21;92799.66;5058847;28;20201;-71
2024/01/01 00:36:30;;;;;;;75.60;44.90;;;;;;;3.90;74.30;92807.31;5059379;28;20190;-72
2024/01/01 00:38:55;;;;;;;75.00;43.70;;;;;;;4.00;74.66;92812.63;5070946;28;20245;-72
2024/01/01 00:41:20;;;;;;;53.80;35.30;;;;;;;3.98;75.04;92809.50;5061506;28;20183;-73
2024/01/01 00:43:46;;;;;;;51.17;31.37;;;;;;;3.81;74.97;92792.44;5036527;28;20214;-72
2024/01/01 00:46:11;;;;;;;49.90;31.23;;;;;;;3.76;74.41;92800.88;5039056;28;20221;-72
2024/01/01 00:48:37;;;;;;;36.57;25.67;;;;;;;3.84;74.39;92813.41;5061763;28;20236;-72
2024/01/01 00:51:02;;;;;;;32.83;23.67;;;;;;;3.79;74.75;92810.72;5069053;28;21095;-72
2024/01/01 00:53:28;;;;;;;30.80;22.53;;;;;;;3.64;75.27;92779.50;5064661;28;20285;-72
2024/01/01 00:55:53;;;;;;;31.03;24.40;;;;;;;3.74;75.43;92807.25;5067272;28;20182;-73
2024/01/01 00:58:18;;;;;;;36.43;24.67;;;;;;;3.72;74.18;92804.91;5058461;28;20261;-73
2024/01/01 01:00:44;;;;;;;39.87;26.73;;;;;;;3.70;74.91;92808.75;5065938;28;20185;-72
2024/01/01 01:03:09;;;;;;;44.83;27.10;;;;;;;3.66;75.08;92810.25;5060718;28;20224;-72
2024/01/01 01:05:36;;;;;;;42.53;28.60;;;;;;;3.59;74.64;92805.22;5056109;28;20185;-72
2024/01/01 01:08:01;;;;;;;38.10;26.77;;;;;;;3.48;75.09;92785.41;5065486;28;20232;-73
2024/01/01 01:10:26;;;;;;;33.63;22.93;;;;;;;3.62;75.35;92793.63;5085248;28;20198;-73
2024/01/01 01:12:54;;;;;;;19.17;17.17;;;;;;;3.55;75.16;92796.34;5056711;28;20224;-71
2024/01/01 01:15:22;;;;;;;19.50;17.57;;;;;;;3.69;75.46;92789.88;5064866;28;20261;-72
2024/01/01 01:17:47;;;;;;;20.07;16.20;;;;;;;3.58;75.53;92782.97;5050182;28;20297;-72
2024/01/01 01:20:13;;;;;;;17.10;15.40;;;;;;;3.61;75.54;92777.34;5043835;28;20215;-73
2024/01/01 01:22:38;;;;;;;16.60;14.90;;;;;;;3.61;76.03;92766.28;5045545;28;20237;-73
2024/01/01 01:25:04;;;;;;;15.93;14.33;;;;;;;3.65;75.71;92763.00;5036850;28;20240;-72
2024/01/01 01:27:29;;;;;;;20.93;16.90;;;;;;;3.71;76.29;92772.38;5045191;28;20249;-73
2024/01/01 01:29:54;;;;;;;23.83;17.87;;;;;;;3.80;76.21;92772.78;5049463;28;20229;-72
2024/01/01 01:32:20;;;;;;;20.40;18.00;;;;;;;3.67;76.07;92758.38;5046821;28;20237;-72
2024/01/01 01:34:45;;;;;;;22.13;18.33;;;;;;;3.88;76.35;92778.34;5041546;28;20186;-72
2024/01/01 01:37:10;;;;;;;28.07;20.17;;;;;;;3.68;75.55;92772.84;5041703;28;20260;-72
2024/01/01 01:39:36;;;;;;;31.30;20.57;;;;;;;3.77;76.66;92771.44;5039397;28;20211;-73
2024/01/01 01:42:01;;;;;;;28.73;20.20;;;;;;;3.76;76.03;92748.44;5053352;28;20216;-71
2024/01/01 01:44:28;;;;;;;38.97;26.10;;;;;;;3.93;76.23;92762.94;5067511;28;20223;-72
2024/01/01 01:46:54;;;;;;;48.27;29.60;;;;;;;3.96;76.38;92762.47;5061594;28;20224;-73
2024/01/01 01:49:19;;;;;;;51.10;32.20;;;;;;;3.95;76.42;92762.69;5067792;28;20244;-72
2024/01/01 01:51:48;;;;;;;43.23;27.57;;;;;;;4.11;76.66;92757.53;5068913;28;20292;-72
2024/01/01 01:54:14;;;;;;;47.83;29.60;;;;;;;4.03;77.19;92755.34;5070258;28;20197;-72
2024/01/01 01:56:40;;;;;;;41.87;28.50;;;;;;;4.02;76.67;92764.09;5062807;28;20186;-72
2024/01/01 01:59:05;;;;;;;39.43;27.90;;;;;;;3.97;77.20;92764.03;5063867;28;20236;-72
2024/01/01 02:01:31;;;;;;;43.67;27.90;;;;;;;3.96;76.41;92757.31;5054171;28;20189;-72
2024/01/01 02:03:57;;;;;;;45.33;28.13;;;;;;;3.97;76.09;92752.94;5060005;28;20270;-72
2024/01/01 02:06:22;;;;;;;38.00;25.93;;;;;;;4.04;76.90;92766.47;5065799;28;20229;-70
2024/01/01 02:08:48;;;;;;;41.20;27.17;;;;;;;3.99;76.64;92759.41;5069344;28;20260;-73
2024/01/01 02:11:13;;;;;;;37.23;24.00;;;;;;;3.84;76.66;92750.66;5060407;28;20204;-72
2024/01/01 02:13:38;;;;;;;45.87;25.23;;;;;;;3.88;76.54;92770.59;5067156;28;20222;-72
2024/01/01 02:16:04;;;;;;;36.80;25.40;;;;;;;3.84;76.92;92759.19;5060064;28;20193;-72
2024/01/01 02:18:29;;;;;;;35.80;25.93;;;;;;;3.88;76.31;92768.00;5068911;28;20221;-72
2024/01/01 02:20:56;;;;;;;38.80;26.60;;;;;;;3.86;76.63;92762.28;5061157;28;20293;-72
2024/01/01 02:23:21;;;;;;;29.37;22.87;;;;;;;3.88;76.90;92762.84;5060685;28;20217;-73
2024/01/01 02:25:47;;;;;;;26.77;20.83;;;;;;;3.53;75.73;92757.09;5067632;28;20185;-72
2024/01/01 02:28:14;;;;;;;29.83;22.97;;;;;;;3.69;75.34;92763.31;5061819;28;20288;-73
2024/01/01 02:30:39;;;;;;;27.53;23.00;;;;;;;3.73;75.51;92775.53;5067256;28;20233;-74
2024/01/01 02:33:09;;;;;;;28.93;22.80;;;;;;;3.78;75.73;92780.78;5057758;28;20232;-73
2024/01/01 02:35:36;;;;;;;36.83;26.60;;;;;;;3.73;75.85;92785.84;5052411;28;20185;-72
2024/01/01 02:38:04;;;;;;;49.33;30.80;;;;;;;3.81;76.45;92777.72;5068612;28;20229;-72
2024/01/01 02:40:30;;;;;;;51.00;30.27;;;;;;;3.90;76.63;92789.22;5069530;28;20217;-72
2024/01/01 02:42:56;;;;;;;55.93;35.33;;;;;;;3.90;76.98;92784.06;5056362;28;20230;-72
2024/01/01 02:45:24;;;;;;;66.40;38.50;;;;;;;3.77;77.42;92779.19;5069197;28;20181;-72
2024/01/01 02:47:49;;;;;;;69.73;40.07;;;;;;;3.78;77.30;92780.78;5057058;28;20249;-72
2024/01/01 02:50:15;;;;;;;61.80;37.23;;;;;;;3.55;76.54;92769.78;5049335;28;20182;-72
2024/01/01 02:52:41;;;;;;;74.67;40.30;;;;;;;3.59;76.43;92781.97;5052094;28;20237;-72
2024/01/01 02:55:07;;;;;;;79.47;44.73;;;;;;;3.55;76.10;92770.53;5049537;28;20186;-72
2024/01/01 02:57:32;;;;;;;75.13;43.00;;;;;;;3.42;75.99;92752.00;5052512;28;20218;-73
2024/01/01 02:59:57;;;;;;;105.70;51.97;;;;;;;3.51;75.80;92766.88;5052517;28;20213;-72
2024/01/01 03:02:23;;;;;;;106.40;54.80;;;;;;;3.34;75.39;92760.88;5046538;28;20227;-72
2024/01/01 03:04:48;;;;;;;106.37;50.63;;;;;;;3.37;75.31;92763.00;5047693;28;20254;-72
2024/01/01 03:07:13;;;;;;;91.07;46.60;;;;;;;3.42;75.69;92768.25;5048402;28;20240;-72
2024/01/01 03:09:39;;;;;;;88.40;47.00;;;;;;;3.35;75.97;92762.44;5062123;28;20218;-72
2024/01/01 03:12:05;;;;;;;99.00;49.50;;;;;;;3.20;75.78;92739.75;5068291;28;20217;-72
2024/01/01 03:14:31;;;;;;;106.30;52.97;;;;;;;3.18;75.88;92739.19;5068361;28;20185;-72
2024/01/01 03:16:56;;;;;;;110.97;56.00;;;;;;;3.14;75.77;92745.81;5063827;28;20240;-72
2024/01/01 03:19:22;;;;;;;97.40;51.47;;;;;;;3.10;75.71;92738.75;5071164;28;20186;-71
2024/01/01 03:21:47;;;;;;;108.73;54.50;;;;;;;3.18;76.02;92728.09;5067629;28;20229;-72
2024/01/01 03:24:12;;;;;;;85.93;46.00;;;;;;;3.25;76.72;92726.16;5067531;28;20188;-73
2024/01/01 03:26:38;;;;;;;100.17;52.40;;;;;;;3.19;75.96;92714.19;5066155;28;20205;-72
2024/01/01 03:29:03;;;;;;;105.90;52.50;;;;;;;3.11;76.21;92710.16;5049378;28;20171;-73
2024/01/01 03:31:28;;;;;;;105.73;51.43;;;;;;;3.13;76.64;92713.31;5041665;28;20179;-72
2024/01/01 03:33:54;;;;;;;73.80;41.57;;;;;;;3.13;75.98;92702.19;5048637;28;20196;-72
2024/01/01 03:36:20;;;;;;;70.70;41.03;;;;;;;3.23;75.16;92708.34;5046874;28;20194;-72
2024/01/01 03:38:45;;;;;;;54.03;30.80;;;;;;;3.15;75.45;92692.44;5046597;28;20225;-72
2024/01/01 03:41:10;;;;;;;56.27;32.13;;;;;;;3.04;75.49;92713.91;5054744;28;20195;-72
2024/01/01 03:43:36;;;;;;;53.17;30.97;;;;;;;3.07;74.85;92719.38;5043732;28;20218;-72
2024/01/01 03:46:01;;;;;;;53.97;30.67;;;;;;;3.11;74.34;92715.31;5047609;28;20225;-73
2024/01/01 03:48:26;;;;;;;42.17;28.23;;;;;;;3.10;74.47;92697.50;5045708;28;20219;-72
2024/01/01 03:50:52;;;;;;;35.53;25.60;;;;;;;3.22;74.85;92695.69;5048010;28;20195;-72
2024/01/01 03:53:17;;;;;;;27.70;21.77;;;;;;;3.13;74.68;92702.19;5056678;28;20282;-72
2024/01/01 03:55:42;;;;;;;27.13;20.67;;;;;;;3.09;74.67;92696.75;5075964;28;20193;-72
2024/01/01 03:58:08;;;;;;;27.43;21.53;;;;;;;3.23;74.65;92698.03;5059123;28;20225;-72
2024/01/01 04:00:33;;;;;;;18.23;16.47;;;;;;;3.20;75.25;92700.28;5067265;28;20178;-73
2024/01/01 04:02:58;;;;;;;18.97;17.07;;;;;;;3.28;74.67;92700.66;5067638;28;20237;-73
2024/01/01 04:05:24;;;;;;;18.07;16.37;;;;;;;3.17;75.17;92695.59;5071517;28;20190;-72
2024/01/01 04:07:49;;;;;;;24.67;18.83;;;;;;;3.26;76.06;92700.13;5064088;28;20228;-73
2024/01/01 04:10:14;;;;;;;21.90;19.70;;;;;;;3.15;75.58;92695.03;5066590;28;20233;-72
2024/01/01 04:12:40;;;;;;;30.80;23.67;;;;;;;3.27;75.88;92706.06;5068036;28;20613;-72
2024/01/01 04:15:05;;;;;;;26.33;19.57;;;;;;;3.27;75.78;92698.31;5066726;28;20289;-72
2024/01/01 04:17:32;;;;;;;20.23;18.20;;;;;;;3.21;76.29;92683.78;5063763;28;20217;-72
2024/01/01 04:19:57;;;;;;;18.73;17.00;;;;;;;3.26;76.33;92704.50;5064890;28;20292;-72
2024/01/01 04:22:23;;;;;;;17.83;16.17;;;;;;;3.33;76.28;92700.75;5061507;28;20228;-73
2024/01/01 04:24:48;;;;;;;17.40;15.47;;;;;;;3.28;76.78;92705.81;5068138;28;20680;-72
2024/01/01 04:27:13;;;;;;;22.73;19.60;;;;;;;3.39;76.87;92713.75;5061849;28;20264;-72
2024/01/01 04:29:39;;;;;;;23.73;18.30;;;;;;;3.42;77.45;92714.06;5050342;28;20197;-72
2024/01/01 04:32:04;;;;;;;22.07;18.83;;;;;;;3.47;77.28;92706.41;5039489;28;20218;-72
2024/01/01 04:34:30;;;;;;;19.67;17.70;;;;;;;3.37;77.36;92698.50;5042286;28;20212;-73
2024/01/01 04:36:55;;;;;;;20.50;18.40;;;;;;;3.42;77.93;92703.75;5049601;28;20225;-72
2024/01/01 04:39:20;;;;;;;32.90;22.13;;;;;;;3.36;76.25;92699.53;5042451;28;20198;-72
2024/01/01 04:41:46;;;;;;;23.90;20.10;;;;;;;3.50;76.71;92705.97;5051630;28;20248;-71
2024/01/01 04:44:11;;;;;;;25.07;19.30;;;;;;;3.59;77.28;92714.09;5064442;28;20193;-72
2024/01/01 04:46:37;;;;;;;26.73;19.73;;;;;;;3.55;76.89;92700.88;5065264;28;20194;-73
2024/01/01 04:49:02;;;;;;;31.93;23.57;;;;;;;3.64;77.56;92712.38;5067010;28;20186;-73
2024/01/01 04:51:27;;;;;;;37.50;25.33;;;;;;;3.74;78.81;92706.59;5057240;28;20182;-72
2024/01/01 04:53:53;;;;;;;37.47;26.07;;;;;;;3.71;79.33;92702.69;5070400;28;20174;-72
2024/01/01 04:56:21;;;;;;;41.53;28.43;;;;;;;3.74;79.71;92704.78;5069772;28;20182;-72
2024/01/01 04:58:46;;;;;;;44.27;28.33;;;;;;;3.60;79.35;92703.53;5070290;28;20201;-73
2024/01/01 05:01:12;;;;;;;47.47;27.33;;;;;;;3.63;79.76;92710.81;5080307;28;20196;-72
2024/01/01 05:03:37;;;;;;;50.43;30.93;;;;;;;3.52;80.02;92687.66;5049361;28;20226;-72
2024/01/01 05:06:02;;;;;;;56.77;31.77;;;;;;;3.67;79.78;92698.22;5035292;28;20182;-72
2024/01/01 05:08:28;;;;;;;53.00;33.10;;;;;;;3.63;80.31;92697.13;5049929;28;20244;-72
2024/01/01 05:10:53;;;;;;;61.00;31.67;;;;;;;3.52;80.28;92711.66;5045849;28;20182;-73
2024/01/01 05:13:18;;;;;;;42.40;29.47;;;;;;;3.61;79.75;92694.75;5040481;28;20242;-73
2024/01/01 05:15:44;;;;;;;46.10;29.00;;;;;;;3.69;80.61;92711.69;5043768;28;20186;-73
2024/01/01 05:18:09;;;;;;;43.97;29.53;;;;;;;3.54;80.37;92694.16;5045541;28;20792;-73
2024/01/01 05:20:35;;;;;;;38.10;24.93;;;;;;;3.52;80.69;92696.16;5050228;28;20274;-72
2024/01/01 05:23:00;;;;;;;39.30;26.73;;;;;;;3.47;80.40;92705.63;5047249;28;20229;-73
2024/01/01 05:25:26;;;;;;;44.37;27.57;;;;;;;3.27;78.71;92682.84;5050102;28;20204;-71
2024/01/01 05:27:51;;;;;;;38.67;25.27;;;;;;;3.31;79.04;92692.47;5046586;28;20277;-72
2024/01/01 05:30:17;;;;;;;46.17;28.50;;;;;;;3.33;79.27;92686.31;5047590;28;20182;-72
2024/01/01 05:32:42;;;;;;;46.60;28.67;;;;;;;3.32;79.73;92693.25;5038759;28;20237;-73
2024/01/01 05:35:08;;;;;;;46.80;27.50;;;;;;;3.35;78.73;92674.72;5048466;28;20245;-72
2024/01/01 05:37:33;;;;;;;33.70;24.17;;;;;;;3.36;78.40;92686.63;5048280;28;20221;-72
2024/01/01 05:39:58;;;;;;;34.67;23.17;;;;;;;3.37;77.84;92685.59;5069927;28;20189;-73
2024/01/01 05:42:24;;;;;;;36.70;24.73;;;;;;;3.45;77.64;92676.69;5068313;28;20243;-72
2024/01/01 05:44:49;;;;;;;27.03;19.80;;;;;;;3.38;77.19;92666.53;5069667;28;20185;-73
2024/01/01 05:47:15;;;;;;;21.43;17.93;;;;;;;3.39;77.52;92675.06;5067885;28;20225;-72
2024/01/01 05:49:40;;;;;;;19.33;16.90;;;;;;;3.36;77.36;92676.31;5065493;28;20205;-73
2024/01/01 05:52:05;;;;;;;19.53;17.60;;;;;;;2.97;78.32;92633.34;5059882;28;20217;-74
2024/01/01 05:54:31;;;;;;;21.07;17.10;;;;;;;3.14;77.66;92670.25;5061747;28;20189;-73
2024/01/01 05:56:56;;;;;;;23.73;18.80;;;;;;;3.30;77.39;92687.53;5062054;28;20217;-72
2024/01/01 05:59:21;;;;;;;25.27;18.00;;;;;;;3.19;76.97;92685.81;5047418;28;20187;-72
2024/01/01 06:01:47;;;;;;;18.77;16.67;;;;;;;3.15;76.58;92679.53;5047330;28;20248;-72
2024/01/01 06:04:12;;;;;;;26.60;20.53;;;;;;;3.29;76.52;92686.78;5049497;28;20193;-72
2024/01/01 06:06:38;;;;;;;26.40;19.30;;;;;;;3.19;76.10;92671.13;5049484;28;20208;-72
2024/01/01 06:09:04;;;;;;;29.40;21.10;;;;;;;3.39;76.08;92682.78;5060301;28;20174;-72
2024/01/01 06:11:30;;;;;;;26.90;21.13;;;;;;;3.42;76.11;92680.53;5064464;28;20181;-73
2024/01/01 06:13:56;;;;;;;22.27;19.97;;;;;;;3.41;76.41;92678.97;5043523;28;21173;-72
2024/01/01 06:16:24;;;;;;;20.83;18.63;;;;;;;3.52;76.62;92675.53;5045844;28;20181;-72
2024/01/01 06:18:49;;;;;;;21.07;18.53;;;;;;;3.64;77.26;92689.16;5040092;28;20253;-73
2024/01/01 06:21:15;;;;;;;23.60;18.23;;;;;;;3.74;78.13;92683.34;5046527;28;20265;-73
2024/01/01 06:23:44;;;;;;;23.50;17.23;;;;;;;3.59;80.35;92670.22;5042628;28;20226;-72
2024/01/01 06:26:09;;;;;;;18.00;16.27;;;;;;;3.74;81.01;92675.59;5044817;28;20196;-72
2024/01/01 06:28:34;;;;;;;19.27;17.27;;;;;;;3.62;81.37;92660.22;5065234;28;20233;-72
2024/01/01 06:31:00;;;;;;;19.73;17.37;;;;;;;3.71;81.65;92653.63;5067341;28;20188;-73
2024/01/01 06:33:25;;;;;;;19.97;17.83;;;;;;;3.80;81.85;92667.69;5066602;28;20259;-72
2024/01/01 06:35:50;;;;;;;19.50;16.77;;;;;;;3.67;82.09;92646.59;5067714;28;20193;-72
2024/01/01 06:38:16;;;;;;;17.30;15.63;;;;;;;3.70;81.80;92675.31;5068292;28;20213;-72
2024/01/01 06:40:41;;;;;;;18.17;16.50;;;;;;;3.67;80.41;92682.72;5052268;28;20185;-72
2024/01/01 06:43:06;;;;;;;22.93;20.37;;;;;;;3.39;74.70;92682.78;5068471;28;20256;-72
2024/01/01 06:45:32;;;;;;;24.87;19.30;;;;;;;3.74;74.84;92667.84;5067893;28;20195;-71
2024/01/01 06:47:57;;;;;;;19.77;17.50;;;;;;;3.90;75.57;92673.03;5060263;28;20229;-71
2024/01/01 06:50:23;;;;;;;20.13;16.73;;;;;;;3.82;77.50;92646.81;5067800;28;20194;-72
2024/01/01 06:52:48;;;;;;;20.73;18.37;;;;;;;3.85;79.35;92654.88;5056332;28;20253;-72
2024/01/01 06:55:16;;;;;;;20.13;18.03;;;;;;;3.97;80.19;92652.97;5045884;28;20320;-72
2024/01/01 06:57:41;;;;;;;19.17;17.40;;;;;;;3.99;81.18;92645.00;5047291;28;20257;-72
2024/01/01 07:00:07;;;;;;;18.57;16.67;;;;;;;4.06;81.13;92651.53;5047988;28;20198;-72
2024/01/01 07:02:51;;;;;;;19.37;17.43;;;;;;;4.22;82.19;92660.28;5033493;28;20227;-72
2024/01/01 07:05:17;;;;;;;20.83;18.63;;;;;;;4.13;81.57;92672.84;5046220;28;20182;-72
2024/01/01 07:07:42;;;;;;;23.17;17.60;;;;;;;4.32;82.25;92665.59;5044395;28;20294;-72
2024/01/01 07:10:08;;;;;;;22.67;17.93;;;;;;;4.54;82.06;92669.75;5044683;28;20256;-71
2024/01/01 07:12:34;;;;;;;20.20;17.63;;;;;;;4.62;82.60;92677.06;5055703;28;20214;-72
2024/01/01 07:15:01;;;;;;;23.27;20.20;;;;;;;4.68;83.08;92654.66;5067758;28;20166;-72
2024/01/01 07:17:27;;;;;;;23.60;20.30;;;;;;;4.91;82.90;92670.72;5065084;28;20255;-72
2024/01/01 07:19:52;;;;;;;24.10;19.40;;;;;;;5.14;83.29;92667.06;5068315;28;21016;-71
2024/01/01 07:22:18;;;;;;;24.93;19.27;;;;;;;5.34;83.52;92664.66;5062116;28;20229;-72
2024/01/01 07:24:43;;;;;;;19.40;17.40;;;;;;;5.35;83.39;92653.28;5067912;28;20204;-72
2024/01/01 07:27:08;;;;;;;21.73;19.20;;;;;;;5.25;83.59;92655.00;5069858;28;20217;-72
2024/01/01 07:29:34;;;;;;;24.23;19.87;;;;;;;5.03;83.01;92656.88;5070211;28;20188;-72
2024/01/01 07:31:59;;;;;;;27.30;21.43;;;;;;;5.70;83.21;92661.34;5067490;28;20253;-72
2024/01/01 07:34:25;;;;;;;32.50;24.60;;;;;;;5.81;83.25;92662.97;5062058;28;20186;-72
2024/01/01 07:36:51;;;;;;;54.63;32.63;;;;;;;5.39;83.22;92671.69;5060106;28;20213;-71
2024/01/01 07:39:19;;;;;;;60.80;36.37;;;;;;;5.53;83.40;92678.03;5071856;28;20187;-72
2024/01/01 07:41:45;;;;;;;54.57;34.87;;;;;;;5.39;83.71;92692.38;5067773;28;20208;-72
2024/01/01 07:44:11;;;;;;;51.73;33.93;;;;;;;5.25;84.13;92696.38;5066500;28;20178;-72
2024/01/01 07:46:36;;;;;;;65.40;35.23;;;;;;;5.50;84.20;92699.22;5064503;28;20228;-73
2024/01/01 07:49:04;;;;;;;52.17;32.80;;;;;;;5.59;84.47;92683.00;5044857;28;20175;-71
2024/01/01 07:51:29;;;;;;;44.60;28.53;;;;;;;5.77;84.83;92684.44;5047355;28;20197;-72
2024/01/01 07:53:54;;;;;;;45.53;29.47;;;;;;;5.87;84.68;92682.75;5049609;28;20193;-72
2024/01/01 07:56:19;;;;;;;47.90;31.97;;;;;;;6.18;85.06;92675.94;5048923;28;20182;-72
2024/01/01 07:58:45;;;;;;;48.10;32.60;;;;;;;6.57;86.27;92692.78;5048723;28;20222;-72
2024/01/01 08:01:10;;;;;;;49.83;32.00;;;;;;;6.41;87.09;92701.53;5042422;28;20228;-72
2024/01/01 08:03:35;;;;;;;51.70;32.50;;;;;;;6.67;87.99;92705.81;5058694;28;20298;-72
2024/01/01 08:06:01;;;;;;;40.87;28.53;;;;;;;6.53;87.82;92702.09;5069156;28;20235;-72
2024/01/01 08:08:26;;;;;;;39.67;25.93;;;;;;;6.79;88.40;92692.63;5060498;28;20229;-73
2024/01/01 08:10:53;;;;;;;39.77;27.17;;;;;;;6.91;87.71;92703.59;5057518;28;20186;-72
2024/01/01 08:13:18;;;;;;;31.77;25.80;;;;;;;7.14;87.80;92696.16;5078863;28;20221;-72
2024/01/01 08:15:43;;;;;;;30.10;22.97;;;;;;;6.87;87.38;92705.91;5060804;28;20209;-72
2024/01/01 08:18:09;;;;;;;28.03;22.80;;;;;;;6.45;87.26;92699.97;5062756;28;20209;-72
2024/01/01 08:20:34;;;;;;;25.40;21.40;;;;;;;6.68;87.83;92699.56;5071236;28;20251;-72
2024/01/01 08:23:00;;;;;;;24.80;20.37;;;;;;;6.74;87.02;92690.03;5060186;28;20225;-71
2024/01/01 08:25:25;;;;;;;26.00;21.40;;;;;;;7.16;87.62;92683.66;5061165;28;20190;-72
2024/01/01 08:27:50;;;;;;;22.57;19.93;;;;;;;6.94;86.90;92692.69;5065977;28;20293;-71
2024/01/01 08:30:16;;;;;;;24.67;21.97;;;;;;;6.34;86.77;92685.38;5060716;28;20189;-72
2024/01/01 08:32:42;;;;;;;24.83;20.80;;;;;;;6.14;87.06;92695.63;5055297;28;20232;-72
2024/01/01 08:35:07;;;;;;;27.63;23.17;;;;;;;6.17;86.59;92677.00;5064444;28;20182;-73
2024/01/01 08:37:33;;;;;;;26.90;21.37;;;;;;;6.23;86.94;92705.28;5058475;28;20213;-72
2024/01/01 08:39:58;;;;;;;27.23;21.97;;;;;;;6.46;87.51;92709.31;5067299;28;20189;-72
2024/01/01 08:42:24;;;;;;;28.77;21.53;;;;;;;6.84;87.64;92711.59;5059930;28;20213;-72
2024/01/01 08:44:49;;;;;;;31.17;22.60;;;;;;;6.80;87.41;92713.16;5059810;28;20178;-72
2024/01/01 08:47:17;;;;;;;31.57;24.00;;;;;;;6.94;87.45;92706.44;5050891;28;20450;-72
2024/01/01 08:49:43;;;;;;;25.43;21.43;;;;;;;6.99;87.35;92703.88;5050806;28;20213;-72
2024/01/01 08:52:08;;;;;;;26.70;21.07;;;;;;;6.82;87.43;92712.91;5050817;28;20217;-72
2024/01/01 08:54:33;;;;;;;28.07;23.07;;;;;;;7.06;87.36;92698.44;5060737;28;20190;-72
2024/01/01 08:56:59;;;;;;;31.27;24.13;;;;;;;6.06;85.76;92662.41;5056984;28;20222;-72
2024/01/01 08:59:24;;;;;;;32.00;23.53;;;;;;;6.67;86.65;92703.22;5049428;28;20174;-72
2024/01/01 09:01:50;;;;;;;29.90;23.47;;;;;;;6.62;87.42;92712.75;5042724;28;20214;-72
2024/01/01 09:04:17;;;;;;;29.63;23.60;;;;;;;6.54;86.25;92698.47;5043702;28;20186;-72
2024/01/01 09:06:43;;;;;;;27.77;23.83;;;;;;;7.17;87.20;92703.44;5043309;28;20289;-72
2024/01/01 09:09:10;;;;;;;37.87;27.03;;;;;;;7.15;87.09;92697.69;5041305;28;20256;-72
2024/01/01 09:11:36;;;;;;;34.53;24.30;;;;;;;7.11;86.94;92691.47;5044281;28;20186;-72
2024/01/01 09:14:01;;;;;;;34.93;25.73;;;;;;;7.57;87.78;92685.31;5041813;28;20847;-72
2024/01/01 09:16:31;;;;;;;37.33;26.03;;;;;;;7.68;87.82;92679.09;5046733;28;20193;-72
2024/01/01 09:18:57;;;;;;;34.63;25.27;;;;;;;7.81;87.49;92675.97;5058884;28;20998;-72
2024/01/01 09:21:24;;;;;;;33.43;25.63;;;;;;;8.10;87.92;92674.44;5054898;28;20317;-72
2024/01/01 09:23:49;;;;;;;31.93;25.43;;;;;;;8.41;87.64;92679.59;5057590;28;20174;-72
2024/01/01 09:26:15;;;;;;;33.97;26.37;;;;;;;8.06;87.39;92675.97;5070588;28;20193;-73
2024/01/01 09:28:40;;;;;;;33.73;24.50;;;;;;;8.02;88.23;92680.16;5046880;28;20218;-72
2024/01/01 09:31:05;;;;;;;35.60;26.60;;;;;;;8.22;89.83;92691.59;5044485;28;20182;-72
2024/01/01 09:33:31;;;;;;;33.37;26.20;;;;;;;8.23;90.86;92682.75;5031835;28;20218;-71
2024/01/01 09:35:56;;;;;;;34.20;26.07;;;;;;;8.04;94.69;92659.09;5046222;28;20193;-72
2024/01/01 09:38:21;;;;;;;38.13;27.50;;;;;;;8.15;96.78;92655.44;5049431;28;20225;-73
2024/01/01 09:40:47;;;;;;;37.30;26.20;;;;;;;8.33;97.50;92635.94;5044064;28;20201;-72
2024/01/01 09:43:20;;;;;;;36.77;28.03;;;;;;;8.72;97.13;92629.03;5041178;28;20238;-72
2024/01/01 09:45:48;;;;;;;29.80;24.37;;;;;;;8.97;94.98;92637.53;5046941;28;20196;-72
2024/01/01 09:48:14;;;;;;;33.93;24.53;;;;;;;8.90;94.04;92631.81;5060310;28;20224;-72
2024/01/01 09:50:40;;;;;;;33.23;23.63;;;;;;;8.73;95.37;92631.38;5060489;28;20252;-72
2024/01/01 09:53:05;;;;;;;37.17;28.67;;;;;;;8.46;98.13;92635.38;5067969;28;20263;-72
2024/01/01 09:55:31;;;;;;;45.07;30.87;;;;;;;8.23;99.94;92648.97;5069282;28;20193;-73
2024/01/01 09:57:56;;;;;;;53.57;33.37;;;;;;;7.34;100.00;92664.25;5068655;28;21119;-72
2024/01/01 10:00:22;;;;;;;50.90;35.07;;;;;;;7.49;100.00;92664.25;5068654;28;20307;-72
2024/01/01 10:02:48;;;;;;;59.70;37.87;;;;;;;7.19;100.00;92653.84;5057058;28;20225;-72
2024/01/01 10:05:15;;;;;;;54.47;34.97;;;;;;;7.16;100.00;92662.16;5064127;28;20192;-71
2024/01/01 10:07:40;;;;;;;60.47;36.67;;;;;;;7.84;100.00;92659.88;5058693;28;20221;-72
2024/01/01 10:10:06;;;;;;;55.47;34.77;;;;;;;8.07;98.17;92648.97;5064495;28;20178;-72
2024/01/01 10:12:32;;;;;;;48.80;31.97;;;;;;;8.02;98.31;92633.34;5064703;28;20263;-72
2024/01/01 10:14:58;;;;;;;45.20;32.70;;;;;;;8.00;99.57;92617.25;5060105;28;20189;-72
2024/01/01 10:17:24;;;;;;;44.47;32.70;;;;;;;8.26;96.76;92609.44;5065849;28;20285;-72
2024/01/01 10:19:55;;;;;;;50.23;33.40;;;;;;;8.43;93.75;92609.91;5058604;28;20188;-72
2024/01/01 10:22:23;;;;;;;45.20;32.43;;;;;;;8.62;92.06;92606.47;5058541;28;20221;-72
2024/01/01 10:24:49;;;;;;;44.57;31.23;;;;;;;8.51;91.47;92604.94;5060040;28;20262;-72
2024/01/01 10:27:20;;;;;;;43.50;31.40;;;;;;;8.25;95.92;92602.69;5059127;28;20729;-72
2024/01/01 10:29:48;;;;;;;48.73;31.47;;;;;;;7.67;98.39;92606.63;5059498;28;20190;-73
2024/01/01 10:32:16;;;;;;;43.10;31.13;;;;;;;8.28;96.01;92613.31;5065295;28;20252;-72
2024/01/01 10:34:46;;;;;;;45.57;32.37;;;;;;;8.23;95.82;92605.53;5068802;28;20209;-72
2024/01/01 10:37:18;;;;;;;50.27;31.83;;;;;;;8.84;92.75;92611.31;5057948;28;20229;-72
2024/01/01 10:39:45;;;;;;;48.43;31.80;;;;;;;9.11;90.31;92601.25;5057514;28;20193;-73
2024/01/01 10:42:11;;;;;;;44.40;31.37;;;;;;;9.36;87.40;92598.50;5062098;28;20226;-72
2024/01/01 10:44:36;;;;;;;52.60;34.07;;;;;;;8.81;90.47;92594.38;5069406;28;20181;-72
2024/01/01 10:47:08;;;;;;;54.97;34.40;;;;;;;8.61;91.15;92591.09;5068299;28;20236;-72
2024/01/01 10:49:33;;;;;;;49.97;35.30;;;;;;;8.68;90.14;92591.59;5066509;28;20189;-72
2024/01/01 10:52:27;;;;;;;61.83;38.23;;;;;;;8.44;91.48;92590.63;5065128;28;20251;-72
2024/01/01 10:55:11;;;;;;;65.53;40.83;;;;;;;8.22;94.16;92608.38;5068376;28;20347;-72
2024/01/01 10:57:49;;;;;;;50.57;34.87;;;;;;;8.13;92.91;92605.53;5055113;28;20260;-72
2024/01/01 11:00:27;;;;;;;47.13;32.73;;;;;;;8.73;88.94;92607.94;5046550;28;20246;-72
2024/01/01 11:02:54;;;;;;;49.70;33.17;;;;;;;8.30;91.21;92595.63;5052087;28;20248;-72
2024/01/01 11:05:32;;;;;;;48.53;29.93;;;;;;;8.43;91.07;92586.47;5051516;28;20189;-72
2024/01/01 11:07:59;;;;;;;39.00;27.87;;;;;;;8.61;88.49;92575.47;5062936;28;20232;-73
2024/01/01 11:10:37;;;;;;;48.50;30.17;;;;;;;8.49;91.62;92567.22;5072044;28;20237;-73
2024/01/01 11:13:10;;;;;;;47.63;32.10;;;;;;;8.64;89.18;92560.13;5082794;28;20222;-73
2024/01/01 11:15:39;;;;;;;43.57;29.53;;;;;;;8.75;88.30;92558.25;5072716;28;20207;-71
2024/01/01 11:18:16;;;;;;;42.70;30.03;;;;;;;8.73;88.06;92560.34;5085407;28;20271;-72